sensor_id;sensor_type;location;lat;lon;timestamp;temperature;humidity
5846;DHT22;2949;50.778;7.094;2023-10-09T00:01:02;14.00;99.90
5846;DHT22;2949;50.778;7.094;2023-10-09T00:03:29;13.90;99.90
5846;DHT22;2949;50.778;7.094;2023-10-09T00:05:55;13.90;99.90
5846;DHT22;2949;50.778;7.094;2023-10-09T00:08:21;13.80;99.90
5846;DHT22;2949;50.778;7.094;2023-10-09T00:10:48;13.80;99.90
5846;DHT22;2949;50.778;7.094;2023-10-09T00:13:27;13.80;99.90
5846;DHT22;2949;50.778;7.094;2023-10-09T00:15:58;13.80;99.90
5846;DHT22;2949;50.778;7.094;2023-10-09T00:18:34;13.80;99.90
5846;DHT22;2949;50.778;7.094;2023-10-09T00:21:00;13.80;99.90
5846;DHT22;2949;50.778;7.094;2023-10-09T00:23:36;13.70;99.90
5846;DHT22;2949;50.778;7.094;2023-10-09T00:26:02;13.70;99.90
5846;DHT22;2949;50.778;7.094;2023-10-09T00:28:39;13.70;99.90
5846;DHT22;2949;50.778;7.094;2023-10-09T00:31:08;13.70;99.90
5846;DHT22;2949;50.778;7.094;2023-10-09T00:33:42;13.70;99.90
5846;DHT22;2949;50.778;7.094;2023-10-09T00:36:09;13.70;99.90
5846;DHT22;2949;50.778;7.094;2023-10-09T00:38:38;13.70;99.90
5846;DHT22;2949;50.778;7.094;2023-10-09T00:41:17;13.70;99.90
5846;DHT22;2949;50.778;7.094;2023-10-09T00:43:50;13.60;99.90
5846;DHT22;2949;50.778;7.094;2023-10-09T00:46:17;13.60;99.90
5846;DHT22;2949;50.778;7.094;2023-10-09T00:48:48;13.60;99.90
5846;DHT22;2949;50.778;7.094;2023-10-09T00:51:17;13.60;99.90
5846;DHT22;2949;50.778;7.094;2023-10-09T00:53:45;13.60;99.90
5846;DHT22;2949;50.778;7.094;2023-10-09T00:56:16;13.60;99.90
5846;DHT22;2949;50.778;7.094;2023-10-09T00:58:49;13.60;99.90
5846;DHT22;2949;50.778;7.094;2023-10-09T01:01:22;13.50;99.90
5846;DHT22;2949;50.778;7.094;2023-10-09T01:03:53;13.50;99.90
5846;DHT22;2949;50.778;7.094;2023-10-09T01:06:18;13.50;99.90
5846;DHT22;2949;50.778;7.094;2023-10-09T01:08:47;13.50;99.90
5846;DHT22;2949;50.778;7.094;2023-10-09T01:11:38;13.50;99.90
5846;DHT22;2949;50.778;7.094;2023-10-09T01:14:14;13.50;99.90
5846;DHT22;2949;50.778;7.094;2023-10-09T01:16:40;13.60;99.90
5846;DHT22;2949;50.778;7.094;2023-10-09T01:19:09;13.60;99.90
5846;DHT22;2949;50.778;7.094;2023-10-09T01:21:51;13.60;99.90
5846;DHT22;2949;50.778;7.094;2023-10-09T01:24:17;13.50;99.90
5846;DHT22;2949;50.778;7.094;2023-10-09T01:26:44;13.40;99.90
5846;DHT22;2949;50.778;7.094;2023-10-09T01:29:19;13.40;99.90
5846;DHT22;2949;50.778;7.094;2023-10-09T01:31:47;13.30;99.90
5846;DHT22;2949;50.778;7.094;2023-10-09T01:34:25;13.20;99.90
5846;DHT22;2949;50.778;7.094;2023-10-09T01:37:12;13.20;99.90
5846;DHT22;2949;50.778;7.094;2023-10-09T01:39:48;13.10;99.90
5846;DHT22;2949;50.778;7.094;2023-10-09T01:42:14;13.10;99.90
5846;DHT22;2949;50.778;7.094;2023-10-09T01:44:50;13.10;99.90
5846;DHT22;2949;50.778;7.094;2023-10-09T01:47:17;13.10;99.90
5846;DHT22;2949;50.778;7.094;2023-10-09T01:49:44;13.10;99.90
5846;DHT22;2949;50.778;7.094;2023-10-09T01:52:14;13.10;99.90
5846;DHT22;2949;50.778;7.094;2023-10-09T01:54:44;13.10;99.90
5846;DHT22;2949;50.778;7.094;2023-10-09T01:57:15;13.10;99.90
5846;DHT22;2949;50.778;7.094;2023-10-09T01:59:44;13.10;99.90
5846;DHT22;2949;50.778;7.094;2023-10-09T02:02:12;13.10;99.90
5846;DHT22;2949;50.778;7.094;2023-10-09T02:05:01;13.10;99.90
5846;DHT22;2949;50.778;7.094;2023-10-09T02:07:50;13.10;99.90
5846;DHT22;2949;50.778;7.094;2023-10-09T02:10:20;13.00;99.90
5846;DHT22;2949;50.778;7.094;2023-10-09T02:12:59;13.00;99.90
5846;DHT22;2949;50.778;7.094;2023-10-09T02:15:26;13.00;99.90
5846;DHT22;2949;50.778;7.094;2023-10-09T02:18:17;13.00;99.90
5846;DHT22;2949;50.778;7.094;2023-10-09T02:20:47;13.00;99.90
5846;DHT22;2949;50.778;7.094;2023-10-09T02:23:20;13.00;99.90
5846;DHT22;2949;50.778;7.094;2023-10-09T02:25:49;13.10;99.90
5846;DHT22;2949;50.778;7.094;2023-10-09T02:28:18;13.10;99.90
5846;DHT22;2949;50.778;7.094;2023-10-09T02:30:47;13.10;99.90
5846;DHT22;2949;50.778;7.094;2023-10-09T02:33:16;13.10;99.90
5846;DHT22;2949;50.778;7.094;2023-10-09T02:36:03;13.10;99.90
5846;DHT22;2949;50.778;7.094;2023-10-09T02:38:34;13.20;99.90
5846;DHT22;2949;50.778;7.094;2023-10-09T02:41:03;13.20;99.90
5846;DHT22;2949;50.778;7.094;2023-10-09T02:43:30;13.20;99.90
5846;DHT22;2949;50.778;7.094;2023-10-09T02:46:16;13.20;99.90
5846;DHT22;2949;50.778;7.094;2023-10-09T02:48:56;13.20;99.90
5846;DHT22;2949;50.778;7.094;2023-10-09T02:51:24;13.20;99.90
5846;DHT22;2949;50.778;7.094;2023-10-09T02:53:53;13.20;99.90
5846;DHT22;2949;50.778;7.094;2023-10-09T02:56:20;13.20;99.90
5846;DHT22;2949;50.778;7.094;2023-10-09T02:58:53;13.20;99.90
5846;DHT22;2949;50.778;7.094;2023-10-09T03:01:19;13.20;99.90
5846;DHT22;2949;50.778;7.094;2023-10-09T03:03:45;13.20;99.90
5846;DHT22;2949;50.778;7.094;2023-10-09T03:06:12;13.20;99.90
5846;DHT22;2949;50.778;7.094;2023-10-09T03:08:39;13.20;99.90
5846;DHT22;2949;50.778;7.094;2023-10-09T03:11:07;13.20;99.90
5846;DHT22;2949;50.778;7.094;2023-10-09T03:13:42;13.10;99.90
5846;DHT22;2949;50.778;7.094;2023-10-09T03:16:13;13.10;99.90
5846;DHT22;2949;50.778;7.094;2023-10-09T03:18:49;13.10;99.90
5846;DHT22;2949;50.778;7.094;2023-10-09T03:21:15;13.10;99.90
5846;DHT22;2949;50.778;7.094;2023-10-09T03:23:46;13.10;99.90
5846;DHT22;2949;50.778;7.094;2023-10-09T03:26:18;13.20;99.90
5846;DHT22;2949;50.778;7.094;2023-10-09T03:28:48;13.20;99.90
5846;DHT22;2949;50.778;7.094;2023-10-09T03:31:14;13.20;99.90
5846;DHT22;2949;50.778;7.094;2023-10-09T03:33:40;13.10;99.90
5846;DHT22;2949;50.778;7.094;2023-10-09T03:36:07;13.10;99.90
5846;DHT22;2949;50.778;7.094;2023-10-09T03:38:35;13.10;99.90
5846;DHT22;2949;50.778;7.094;2023-10-09T03:41:02;13.10;99.90
5846;DHT22;2949;50.778;7.094;2023-10-09T03:43:37;13.10;99.90
5846;DHT22;2949;50.778;7.094;2023-10-09T03:46:11;13.10;99.90
5846;DHT22;2949;50.778;7.094;2023-10-09T03:48:58;13.10;99.90
5846;DHT22;2949;50.778;7.094;2023-10-09T03:51:27;13.00;99.90
5846;DHT22;2949;50.778;7.094;2023-10-09T03:53:52;13.00;99.90
5846;DHT22;2949;50.778;7.094;2023-10-09T03:56:18;13.10;99.90
5846;DHT22;2949;50.778;7.094;2023-10-09T03:58:48;13.10;99.90
5846;DHT22;2949;50.778;7.094;2023-10-09T04:01:20;13.10;99.90
5846;DHT22;2949;50.778;7.094;2023-10-09T04:04:04;13.10;99.90
5846;DHT22;2949;50.778;7.094;2023-10-09T04:06:32;13.10;99.90
5846;DHT22;2949;50.778;7.094;2023-10-09T04:09:05;13.10;99.90
5846;DHT22;2949;50.778;7.094;2023-10-09T04:11:50;13.10;99.90
5846;DHT22;2949;50.778;7.094;2023-10-09T04:14:34;13.10;99.90
5846;DHT22;2949;50.778;7.094;2023-10-09T04:17:00;13.00;99.90
5846;DHT22;2949;50.778;7.094;2023-10-09T04:19:30;13.00;99.90
5846;DHT22;2949;50.778;7.094;2023-10-09T04:22:04;13.00;99.90
5846;DHT22;2949;50.778;7.094;2023-10-09T04:24:33;13.00;99.90
5846;DHT22;2949;50.778;7.094;2023-10-09T04:27:07;13.00;99.90
5846;DHT22;2949;50.778;7.094;2023-10-09T04:29:33;13.00;99.90
5846;DHT22;2949;50.778;7.094;2023-10-09T04:32:05;13.00;99.90
5846;DHT22;2949;50.778;7.094;2023-10-09T04:34:41;13.00;99.90
5846;DHT22;2949;50.778;7.094;2023-10-09T04:37:14;13.00;99.90
5846;DHT22;2949;50.778;7.094;2023-10-09T04:39:43;13.10;99.90
5846;DHT22;2949;50.778;7.094;2023-10-09T04:42:13;13.10;99.90
5846;DHT22;2949;50.778;7.094;2023-10-09T04:45:05;13.10;99.90
5846;DHT22;2949;50.778;7.094;2023-10-09T04:47:32;13.20;99.90
5846;DHT22;2949;50.778;7.094;2023-10-09T04:50:09;13.20;99.90
5846;DHT22;2949;50.778;7.094;2023-10-09T04:52:37;13.30;99.90
5846;DHT22;2949;50.778;7.094;2023-10-09T04:55:03;13.30;99.90
5846;DHT22;2949;50.778;7.094;2023-10-09T04:57:35;13.30;99.90
5846;DHT22;2949;50.778;7.094;2023-10-09T05:00:17;13.30;99.90
5846;DHT22;2949;50.778;7.094;2023-10-09T05:02:59;13.40;99.90
5846;DHT22;2949;50.778;7.094;2023-10-09T05:05:33;13.50;99.90
5846;DHT22;2949;50.778;7.094;2023-10-09T05:08:08;13.40;99.90
5846;DHT22;2949;50.778;7.094;2023-10-09T05:10:53;13.50;99.90
5846;DHT22;2949;50.778;7.094;2023-10-09T05:13:34;13.50;99.90
5846;DHT22;2949;50.778;7.094;2023-10-09T05:16:16;13.50;99.90
5846;DHT22;2949;50.778;7.094;2023-10-09T05:18:51;13.50;99.90
5846;DHT22;2949;50.778;7.094;2023-10-09T05:21:35;13.50;99.90
5846;DHT22;2949;50.778;7.094;2023-10-09T05:24:03;13.50;99.90
5846;DHT22;2949;50.778;7.094;2023-10-09T05:26:49;13.60;99.90
5846;DHT22;2949;50.778;7.094;2023-10-09T05:29:25;13.60;99.90
5846;DHT22;2949;50.778;7.094;2023-10-09T05:32:16;13.70;99.90
5846;DHT22;2949;50.778;7.094;2023-10-09T05:34:53;13.70;99.90
5846;DHT22;2949;50.778;7.094;2023-10-09T05:37:32;13.80;99.90
5846;DHT22;2949;50.778;7.094;2023-10-09T05:40:02;13.80;99.90
5846;DHT22;2949;50.778;7.094;2023-10-09T05:42:30;13.80;99.90
5846;DHT22;2949;50.778;7.094;2023-10-09T05:45:11;13.80;99.90
5846;DHT22;2949;50.778;7.094;2023-10-09T05:47:48;13.80;99.90
5846;DHT22;2949;50.778;7.094;2023-10-09T05:50:23;13.80;99.90
5846;DHT22;2949;50.778;7.094;2023-10-09T05:52:52;13.80;99.90
5846;DHT22;2949;50.778;7.094;2023-10-09T05:57:59;13.80;99.90
5846;DHT22;2949;50.778;7.094;2023-10-09T06:00:43;13.80;99.90
5846;DHT22;2949;50.778;7.094;2023-10-09T06:03:27;13.80;99.90
5846;DHT22;2949;50.778;7.094;2023-10-09T06:06:13;13.80;99.90
5846;DHT22;2949;50.778;7.094;2023-10-09T06:08:57;13.90;99.90
5846;DHT22;2949;50.778;7.094;2023-10-09T06:11:55;13.90;99.90
5846;DHT22;2949;50.778;7.094;2023-10-09T06:14:30;14.00;99.90
5846;DHT22;2949;50.778;7.094;2023-10-09T06:16:57;14.00;99.90
5846;DHT22;2949;50.778;7.094;2023-10-09T06:19:24;14.10;99.90
5846;DHT22;2949;50.778;7.094;2023-10-09T06:21:54;14.10;99.90
5846;DHT22;2949;50.778;7.094;2023-10-09T06:24:30;14.20;99.90
5846;DHT22;2949;50.778;7.094;2023-10-09T06:26:59;14.20;99.90
5846;DHT22;2949;50.778;7.094;2023-10-09T06:29:29;14.30;99.90
5846;DHT22;2949;50.778;7.094;2023-10-09T06:32:05;14.30;99.90
5846;DHT22;2949;50.778;7.094;2023-10-09T06:34:56;14.30;99.90
5846;DHT22;2949;50.778;7.094;2023-10-09T06:37:43;14.40;99.90
5846;DHT22;2949;50.778;7.094;2023-10-09T06:40:30;14.50;99.90
5846;DHT22;2949;50.778;7.094;2023-10-09T06:43:14;14.60;99.90
5846;DHT22;2949;50.778;7.094;2023-10-09T06:45:43;14.80;99.90
5846;DHT22;2949;50.778;7.094;2023-10-09T06:48:10;14.90;99.90
5846;DHT22;2949;50.778;7.094;2023-10-09T06:50:54;15.00;99.90
5846;DHT22;2949;50.778;7.094;2023-10-09T06:53:39;15.10;99.90
5846;DHT22;2949;50.778;7.094;2023-10-09T06:56:25;15.20;99.90
5846;DHT22;2949;50.778;7.094;2023-10-09T06:59:04;15.30;99.90
5846;DHT22;2949;50.778;7.094;2023-10-09T07:01:41;15.50;99.90
5846;DHT22;2949;50.778;7.094;2023-10-09T07:04:12;15.50;99.90
5846;DHT22;2949;50.778;7.094;2023-10-09T07:06:48;15.60;99.90
5846;DHT22;2949;50.778;7.094;2023-10-09T07:09:14;15.80;99.90
5846;DHT22;2949;50.778;7.094;2023-10-09T07:11:42;16.00;99.90
5846;DHT22;2949;50.778;7.094;2023-10-09T07:19:26;16.80;99.90
5846;DHT22;2949;50.778;7.094;2023-10-09T07:22:07;17.00;99.90
5846;DHT22;2949;50.778;7.094;2023-10-09T07:24:46;17.10;99.90
5846;DHT22;2949;50.778;7.094;2023-10-09T07:27:40;17.10;99.90
5846;DHT22;2949;50.778;7.094;2023-10-09T07:30:25;17.10;99.90
5846;DHT22;2949;50.778;7.094;2023-10-09T07:33:01;17.00;99.90
5846;DHT22;2949;50.778;7.094;2023-10-09T07:35:41;17.00;99.90
5846;DHT22;2949;50.778;7.094;2023-10-09T07:38:16;17.00;99.90
5846;DHT22;2949;50.778;7.094;2023-10-09T07:40:46;17.10;99.90
5846;DHT22;2949;50.778;7.094;2023-10-09T07:43:25;17.20;99.90
5846;DHT22;2949;50.778;7.094;2023-10-09T07:46:15;17.40;99.90
5846;DHT22;2949;50.778;7.094;2023-10-09T07:49:17;17.50;99.90
5846;DHT22;2949;50.778;7.094;2023-10-09T07:51:50;17.80;99.90
5846;DHT22;2949;50.778;7.094;2023-10-09T07:54:18;18.10;99.90
5846;DHT22;2949;50.778;7.094;2023-10-09T07:56:58;18.40;99.90
5846;DHT22;2949;50.778;7.094;2023-10-09T07:59:34;18.60;99.90
5846;DHT22;2949;50.778;7.094;2023-10-09T08:02:07;18.90;99.90
5846;DHT22;2949;50.778;7.094;2023-10-09T08:04:39;19.20;99.90
5846;DHT22;2949;50.778;7.094;2023-10-09T08:07:14;19.30;99.90
5846;DHT22;2949;50.778;7.094;2023-10-09T08:09:48;19.20;99.90
5846;DHT22;2949;50.778;7.094;2023-10-09T08:12:16;19.00;99.90
5846;DHT22;2949;50.778;7.094;2023-10-09T08:15:05;18.90;99.90
5846;DHT22;2949;50.778;7.094;2023-10-09T08:17:54;18.80;99.90
5846;DHT22;2949;50.778;7.094;2023-10-09T08:20:28;18.80;99.90
5846;DHT22;2949;50.778;7.094;2023-10-09T08:23:01;18.70;99.90
5846;DHT22;2949;50.778;7.094;2023-10-09T08:25:30;18.70;99.90
5846;DHT22;2949;50.778;7.094;2023-10-09T08:28:02;18.90;99.90
5846;DHT22;2949;50.778;7.094;2023-10-09T08:30:40;19.00;99.90
5846;DHT22;2949;50.778;7.094;2023-10-09T08:33:09;19.00;99.90
5846;DHT22;2949;50.778;7.094;2023-10-09T08:35:56;18.90;99.90
5846;DHT22;2949;50.778;7.094;2023-10-09T08:38:29;19.00;99.90
5846;DHT22;2949;50.778;7.094;2023-10-09T08:41:12;19.10;99.90
5846;DHT22;2949;50.778;7.094;2023-10-09T08:43:50;19.10;99.90
5846;DHT22;2949;50.778;7.094;2023-10-09T08:46:27;19.10;99.90
5846;DHT22;2949;50.778;7.094;2023-10-09T08:48:55;19.10;99.90
5846;DHT22;2949;50.778;7.094;2023-10-09T08:51:23;19.10;99.90
5846;DHT22;2949;50.778;7.094;2023-10-09T08:53:49;19.20;99.90
5846;DHT22;2949;50.778;7.094;2023-10-09T08:56:19;19.30;99.90
5846;DHT22;2949;50.778;7.094;2023-10-09T08:58:49;19.40;99.90
5846;DHT22;2949;50.778;7.094;2023-10-09T09:01:17;19.40;99.90
5846;DHT22;2949;50.778;7.094;2023-10-09T09:03:45;19.50;99.90
5846;DHT22;2949;50.778;7.094;2023-10-09T09:06:10;19.50;99.90
5846;DHT22;2949;50.778;7.094;2023-10-09T09:08:37;19.30;99.90
5846;DHT22;2949;50.778;7.094;2023-10-09T09:11:04;19.40;99.90
5846;DHT22;2949;50.778;7.094;2023-10-09T09:14:04;19.70;99.90
5846;DHT22;2949;50.778;7.094;2023-10-09T09:16:31;20.20;99.90
5846;DHT22;2949;50.778;7.094;2023-10-09T09:19:00;20.70;99.90
5846;DHT22;2949;50.778;7.094;2023-10-09T09:21:29;20.80;99.90
5846;DHT22;2949;50.778;7.094;2023-10-09T09:23:56;21.00;99.90
5846;DHT22;2949;50.778;7.094;2023-10-09T09:26:50;21.30;99.90
5846;DHT22;2949;50.778;7.094;2023-10-09T09:32:07;22.00;99.90
5846;DHT22;2949;50.778;7.094;2023-10-09T09:34:50;21.90;99.90
5846;DHT22;2949;50.778;7.094;2023-10-09T09:37:24;21.80;99.90
5846;DHT22;2949;50.778;7.094;2023-10-09T09:40:10;21.70;99.90
5846;DHT22;2949;50.778;7.094;2023-10-09T09:42:57;21.80;99.90
5846;DHT22;2949;50.778;7.094;2023-10-09T09:45:37;22.60;99.90
5846;DHT22;2949;50.778;7.094;2023-10-09T09:48:04;23.40;99.90
5846;DHT22;2949;50.778;7.094;2023-10-09T09:50:40;24.00;99.90
5846;DHT22;2949;50.778;7.094;2023-10-09T09:53:13;24.10;99.90
5846;DHT22;2949;50.778;7.094;2023-10-09T09:55:45;24.10;99.90
5846;DHT22;2949;50.778;7.094;2023-10-09T09:58:18;24.50;99.90
5846;DHT22;2949;50.778;7.094;2023-10-09T10:00:50;24.80;99.90
5846;DHT22;2949;50.778;7.094;2023-10-09T10:03:23;25.40;99.90
5846;DHT22;2949;50.778;7.094;2023-10-09T10:05:52;25.80;99.90
5846;DHT22;2949;50.778;7.094;2023-10-09T10:08:21;26.20;99.90
5846;DHT22;2949;50.778;7.094;2023-10-09T10:10:56;26.90;99.90
5846;DHT22;2949;50.778;7.094;2023-10-09T10:16:11;26.80;99.70
5846;DHT22;2949;50.778;7.094;2023-10-09T10:18:59;26.10;99.90
5846;DHT22;2949;50.778;7.094;2023-10-09T10:21:44;25.60;99.90
5846;DHT22;2949;50.778;7.094;2023-10-09T10:27:17;25.10;99.90
5846;DHT22;2949;50.778;7.094;2023-10-09T10:32:57;25.70;99.90
5846;DHT22;2949;50.778;7.094;2023-10-09T10:35:45;26.20;99.90
5846;DHT22;2949;50.778;7.094;2023-10-09T10:38:27;26.60;99.90
5846;DHT22;2949;50.778;7.094;2023-10-09T10:41:16;26.30;99.90
5846;DHT22;2949;50.778;7.094;2023-10-09T10:43:46;26.00;99.90
5846;DHT22;2949;50.778;7.094;2023-10-09T10:46:12;25.90;99.90
5846;DHT22;2949;50.778;7.094;2023-10-09T10:48:53;26.00;99.90
5846;DHT22;2949;50.778;7.094;2023-10-09T10:51:26;25.90;99.90
5846;DHT22;2949;50.778;7.094;2023-10-09T10:54:01;25.80;99.90
5846;DHT22;2949;50.778;7.094;2023-10-09T10:56:47;25.90;99.90
5846;DHT22;2949;50.778;7.094;2023-10-09T10:59:21;26.00;99.90
5846;DHT22;2949;50.778;7.094;2023-10-09T11:01:51;26.00;99.90
5846;DHT22;2949;50.778;7.094;2023-10-09T11:04:28;26.30;99.90
5846;DHT22;2949;50.778;7.094;2023-10-09T11:07:00;26.50;99.50
5846;DHT22;2949;50.778;7.094;2023-10-09T11:09:56;26.60;99.30
5846;DHT22;2949;50.778;7.094;2023-10-09T11:12:27;26.70;98.20
5846;DHT22;2949;50.778;7.094;2023-10-09T11:15:05;26.70;98.50
5846;DHT22;2949;50.778;7.094;2023-10-09T11:17:32;26.70;98.70
5846;DHT22;2949;50.778;7.094;2023-10-09T11:19:58;26.70;99.10
5846;DHT22;2949;50.778;7.094;2023-10-09T11:22:25;26.70;98.70
5846;DHT22;2949;50.778;7.094;2023-10-09T11:24:54;26.60;99.40
5846;DHT22;2949;50.778;7.094;2023-10-09T11:27:40;26.60;98.90
5846;DHT22;2949;50.778;7.094;2023-10-09T11:30:15;26.40;99.10
5846;DHT22;2949;50.778;7.094;2023-10-09T11:32:47;26.30;99.10
5846;DHT22;2949;50.778;7.094;2023-10-09T11:35:15;26.30;99.40
5846;DHT22;2949;50.778;7.094;2023-10-09T11:37:56;26.20;98.00
5846;DHT22;2949;50.778;7.094;2023-10-09T11:40:32;26.10;98.20
5846;DHT22;2949;50.778;7.094;2023-10-09T11:43:30;26.00;98.30
5846;DHT22;2949;50.778;7.094;2023-10-09T11:46:23;25.90;98.70
5846;DHT22;2949;50.778;7.094;2023-10-09T11:49:18;25.80;98.70
5846;DHT22;2949;50.778;7.094;2023-10-09T11:51:47;25.80;99.60
5846;DHT22;2949;50.778;7.094;2023-10-09T11:54:32;25.80;99.90
5846;DHT22;2949;50.778;7.094;2023-10-09T11:56:59;25.70;99.90
5846;DHT22;2949;50.778;7.094;2023-10-09T11:59:31;25.70;99.70
5846;DHT22;2949;50.778;7.094;2023-10-09T12:02:12;25.60;99.90
5846;DHT22;2949;50.778;7.094;2023-10-09T12:04:39;25.60;99.90
5846;DHT22;2949;50.778;7.094;2023-10-09T12:07:08;25.50;99.90
5846;DHT22;2949;50.778;7.094;2023-10-09T12:09:34;25.40;99.90
5846;DHT22;2949;50.778;7.094;2023-10-09T12:12:05;25.40;99.90
5846;DHT22;2949;50.778;7.094;2023-10-09T12:14:31;25.40;99.90
5846;DHT22;2949;50.778;7.094;2023-10-09T12:17:04;25.40;99.90
5846;DHT22;2949;50.778;7.094;2023-10-09T12:19:37;25.20;99.90
5846;DHT22;2949;50.778;7.094;2023-10-09T12:22:05;25.10;99.90
5846;DHT22;2949;50.778;7.094;2023-10-09T12:24:32;25.10;99.90
5846;DHT22;2949;50.778;7.094;2023-10-09T12:27:02;25.20;99.90
5846;DHT22;2949;50.778;7.094;2023-10-09T12:29:30;25.30;99.90
5846;DHT22;2949;50.778;7.094;2023-10-09T12:31:58;25.30;99.90
5846;DHT22;2949;50.778;7.094;2023-10-09T12:34:25;25.40;99.90
5846;DHT22;2949;50.778;7.094;2023-10-09T12:36:53;25.40;99.90
5846;DHT22;2949;50.778;7.094;2023-10-09T12:39:19;25.50;99.90
5846;DHT22;2949;50.778;7.094;2023-10-09T12:41:45;25.60;99.90
5846;DHT22;2949;50.778;7.094;2023-10-09T12:44:10;25.50;99.90
5846;DHT22;2949;50.778;7.094;2023-10-09T12:46:41;25.50;99.90
5846;DHT22;2949;50.778;7.094;2023-10-09T12:49:06;25.40;99.90
5846;DHT22;2949;50.778;7.094;2023-10-09T12:51:32;25.30;99.90
5846;DHT22;2949;50.778;7.094;2023-10-09T12:53:58;25.30;99.40
5846;DHT22;2949;50.778;7.094;2023-10-09T12:56:24;25.10;97.40
5846;DHT22;2949;50.778;7.094;2023-10-09T12:58:59;25.10;96.90
5846;DHT22;2949;50.778;7.094;2023-10-09T13:01:26;25.00;97.70
5846;DHT22;2949;50.778;7.094;2023-10-09T13:04:00;24.80;97.80
5846;DHT22;2949;50.778;7.094;2023-10-09T13:06:26;24.80;98.60
5846;DHT22;2949;50.778;7.094;2023-10-09T13:08:53;24.80;98.60
5846;DHT22;2949;50.778;7.094;2023-10-09T13:11:18;24.70;98.10
5846;DHT22;2949;50.778;7.094;2023-10-09T13:13:46;24.50;98.50
5846;DHT22;2949;50.778;7.094;2023-10-09T13:16:20;24.50;99.80
5846;DHT22;2949;50.778;7.094;2023-10-09T13:18:56;24.50;99.90
5846;DHT22;2949;50.778;7.094;2023-10-09T13:21:26;24.40;99.90
5846;DHT22;2949;50.778;7.094;2023-10-09T13:23:57;24.30;99.40
5846;DHT22;2949;50.778;7.094;2023-10-09T13:26:23;24.10;99.90
5846;DHT22;2949;50.778;7.094;2023-10-09T13:28:56;24.10;99.90
5846;DHT22;2949;50.778;7.094;2023-10-09T13:31:24;24.00;99.90
5846;DHT22;2949;50.778;7.094;2023-10-09T13:33:53;24.00;99.90
5846;DHT22;2949;50.778;7.094;2023-10-09T13:36:25;23.90;99.90
5846;DHT22;2949;50.778;7.094;2023-10-09T13:38:58;23.80;99.90
5846;DHT22;2949;50.778;7.094;2023-10-09T13:41:27;23.80;99.90
5846;DHT22;2949;50.778;7.094;2023-10-09T13:43:55;23.80;99.90
5846;DHT22;2949;50.778;7.094;2023-10-09T13:46:22;23.70;99.90
5846;DHT22;2949;50.778;7.094;2023-10-09T13:48:48;23.60;99.90
5846;DHT22;2949;50.778;7.094;2023-10-09T13:51:15;23.50;99.90
5846;DHT22;2949;50.778;7.094;2023-10-09T13:53:47;23.40;99.90
5846;DHT22;2949;50.778;7.094;2023-10-09T13:56:17;23.30;99.90
5846;DHT22;2949;50.778;7.094;2023-10-09T13:58:46;23.20;99.90
5846;DHT22;2949;50.778;7.094;2023-10-09T14:01:13;23.20;99.90
5846;DHT22;2949;50.778;7.094;2023-10-09T14:03:55;23.20;99.90
5846;DHT22;2949;50.778;7.094;2023-10-09T14:06:21;23.30;99.90
5846;DHT22;2949;50.778;7.094;2023-10-09T14:08:56;23.30;99.90
5846;DHT22;2949;50.778;7.094;2023-10-09T14:11:22;23.30;99.90
5846;DHT22;2949;50.778;7.094;2023-10-09T14:13:47;23.30;99.90
5846;DHT22;2949;50.778;7.094;2023-10-09T14:16:13;23.20;99.90
5846;DHT22;2949;50.778;7.094;2023-10-09T14:18:56;23.10;99.90
5846;DHT22;2949;50.778;7.094;2023-10-09T14:21:27;23.00;99.90
5846;DHT22;2949;50.778;7.094;2023-10-09T14:23:58;22.90;99.90
5846;DHT22;2949;50.778;7.094;2023-10-09T14:26:27;22.80;99.90
5846;DHT22;2949;50.778;7.094;2023-10-09T14:28:54;22.80;99.90
5846;DHT22;2949;50.778;7.094;2023-10-09T14:31:22;22.70;99.90
5846;DHT22;2949;50.778;7.094;2023-10-09T14:33:53;22.70;99.90
5846;DHT22;2949;50.778;7.094;2023-10-09T14:36:20;22.60;99.90
5846;DHT22;2949;50.778;7.094;2023-10-09T14:38:50;22.60;99.90
5846;DHT22;2949;50.778;7.094;2023-10-09T14:41:22;22.60;99.90
5846;DHT22;2949;50.778;7.094;2023-10-09T14:43:51;22.50;99.90
5846;DHT22;2949;50.778;7.094;2023-10-09T14:46:18;22.40;99.90
5846;DHT22;2949;50.778;7.094;2023-10-09T14:48:51;22.30;99.90
5846;DHT22;2949;50.778;7.094;2023-10-09T14:51:19;22.30;99.90
5846;DHT22;2949;50.778;7.094;2023-10-09T14:53:55;22.20;99.90
5846;DHT22;2949;50.778;7.094;2023-10-09T14:56:25;22.10;99.90
5846;DHT22;2949;50.778;7.094;2023-10-09T14:58:58;22.10;99.90
5846;DHT22;2949;50.778;7.094;2023-10-09T15:01:30;22.00;99.90
5846;DHT22;2949;50.778;7.094;2023-10-09T15:03:59;22.00;99.90
5846;DHT22;2949;50.778;7.094;2023-10-09T15:06:27;22.00;99.90
5846;DHT22;2949;50.778;7.094;2023-10-09T15:08:55;21.90;99.90
5846;DHT22;2949;50.778;7.094;2023-10-09T15:11:25;21.90;99.90
5846;DHT22;2949;50.778;7.094;2023-10-09T15:13:52;21.80;99.90
5846;DHT22;2949;50.778;7.094;2023-10-09T15:16:18;21.70;99.90
5846;DHT22;2949;50.778;7.094;2023-10-09T15:18:47;21.70;99.90
5846;DHT22;2949;50.778;7.094;2023-10-09T15:21:18;21.70;99.90
5846;DHT22;2949;50.778;7.094;2023-10-09T15:23:43;21.60;99.90
5846;DHT22;2949;50.778;7.094;2023-10-09T15:26:09;21.50;99.90
5846;DHT22;2949;50.778;7.094;2023-10-09T15:28:35;21.50;99.90
5846;DHT22;2949;50.778;7.094;2023-10-09T15:31:01;21.40;99.90
5846;DHT22;2949;50.778;7.094;2023-10-09T15:33:26;21.30;99.90
5846;DHT22;2949;50.778;7.094;2023-10-09T15:35:56;21.20;99.90
5846;DHT22;2949;50.778;7.094;2023-10-09T15:38:21;21.10;99.90
5846;DHT22;2949;50.778;7.094;2023-10-09T15:40:47;21.00;99.90
5846;DHT22;2949;50.778;7.094;2023-10-09T15:43:13;20.90;99.90
5846;DHT22;2949;50.778;7.094;2023-10-09T15:45:42;20.90;99.90
5846;DHT22;2949;50.778;7.094;2023-10-09T15:48:10;20.80;99.90
5846;DHT22;2949;50.778;7.094;2023-10-09T15:50:38;20.80;99.90
5846;DHT22;2949;50.778;7.094;2023-10-09T15:53:04;20.70;99.90
5846;DHT22;2949;50.778;7.094;2023-10-09T15:55:33;20.70;99.90
5846;DHT22;2949;50.778;7.094;2023-10-09T15:57:59;20.60;99.90
5846;DHT22;2949;50.778;7.094;2023-10-09T16:00:25;20.60;99.90
5846;DHT22;2949;50.778;7.094;2023-10-09T16:02:56;20.50;99.90
5846;DHT22;2949;50.778;7.094;2023-10-09T16:05:22;20.50;99.90
5846;DHT22;2949;50.778;7.094;2023-10-09T16:07:52;20.40;99.90
5846;DHT22;2949;50.778;7.094;2023-10-09T16:10:19;20.30;99.90
5846;DHT22;2949;50.778;7.094;2023-10-09T16:12:46;20.20;99.90
5846;DHT22;2949;50.778;7.094;2023-10-09T16:15:12;20.10;99.90
5846;DHT22;2949;50.778;7.094;2023-10-09T16:17:40;19.90;99.90
5846;DHT22;2949;50.778;7.094;2023-10-09T16:20:08;19.80;99.90
5846;DHT22;2949;50.778;7.094;2023-10-09T16:22:40;19.60;99.90
5846;DHT22;2949;50.778;7.094;2023-10-09T16:25:05;19.40;99.90
5846;DHT22;2949;50.778;7.094;2023-10-09T16:27:35;19.30;99.90
5846;DHT22;2949;50.778;7.094;2023-10-09T16:30:00;19.20;99.90
5846;DHT22;2949;50.778;7.094;2023-10-09T16:32:31;19.00;99.90
5846;DHT22;2949;50.778;7.094;2023-10-09T16:34:57;18.90;99.90
5846;DHT22;2949;50.778;7.094;2023-10-09T16:37:24;18.80;99.90
5846;DHT22;2949;50.778;7.094;2023-10-09T16:39:51;18.70;99.90
5846;DHT22;2949;50.778;7.094;2023-10-09T16:42:19;18.70;99.90
5846;DHT22;2949;50.778;7.094;2023-10-09T16:44:49;18.60;99.90
5846;DHT22;2949;50.778;7.094;2023-10-09T16:47:15;18.60;99.90
5846;DHT22;2949;50.778;7.094;2023-10-09T16:49:42;18.50;99.90
5846;DHT22;2949;50.778;7.094;2023-10-09T16:52:08;18.40;99.90
5846;DHT22;2949;50.778;7.094;2023-10-09T16:54:37;18.30;99.90
5846;DHT22;2949;50.778;7.094;2023-10-09T16:57:03;18.30;99.90